sensor_id;sensor_type;location;lat;lon;timestamp;pressure;altitude;pressure_sealevel;temperature;humidity
70200;BME280;57587;55.688;37.600;2024-03-08T00:00:15;99554.63;;;-0.84;51.89
70200;BME280;57587;55.688;37.600;2024-03-08T00:02:45;99569.28;;;-0.93;51.62
70200;BME280;57587;55.688;37.600;2024-03-08T00:05:14;99558.28;;;-0.98;52.57
70200;BME280;57587;55.688;37.600;2024-03-08T00:07:42;99557.44;;;-0.98;52.24
70200;BME280;57587;55.688;37.600;2024-03-08T00:10:12;99549.34;;;-0.95;52.28
70200;BME280;57587;55.688;37.600;2024-03-08T00:12:44;99542.84;;;-1.02;52.02
70200;BME280;57587;55.688;37.600;2024-03-08T00:15:15;99541.06;;;-1.02;51.87
70200;BME280;57587;55.688;37.600;2024-03-08T00:17:45;99543.19;;;-1.07;51.96
70200;BME280;57587;55.688;37.600;2024-03-08T00:20:13;99531.53;;;-1.16;52.18
70200;BME280;57587;55.688;37.600;2024-03-08T00:22:41;99535.00;;;-1.15;52.02
70200;BME280;57587;55.688;37.600;2024-03-08T00:25:09;99525.16;;;-1.24;51.89
70200;BME280;57587;55.688;37.600;2024-03-08T00:27:37;99523.78;;;-1.17;51.67
70200;BME280;57587;55.688;37.600;2024-03-08T00:30:06;99528.53;;;-1.22;51.67
70200;BME280;57587;55.688;37.600;2024-03-08T00:32:35;99522.28;;;-1.32;51.75
70200;BME280;57587;55.688;37.600;2024-03-08T00:35:03;99525.81;;;-1.33;51.59
70200;BME280;57587;55.688;37.600;2024-03-08T00:37:31;99517.44;;;-1.38;51.94
70200;BME280;57587;55.688;37.600;2024-03-08T00:39:58;99519.13;;;-1.37;51.79
70200;BME280;57587;55.688;37.600;2024-03-08T00:42:25;99509.47;;;-1.37;51.95
70200;BME280;57587;55.688;37.600;2024-03-08T00:44:53;99502.63;;;-1.40;51.94
70200;BME280;57587;55.688;37.600;2024-03-08T00:47:20;99504.44;;;-1.40;51.92
70200;BME280;57587;55.688;37.600;2024-03-08T00:49:47;99505.25;;;-1.40;52.11
70200;BME280;57587;55.688;37.600;2024-03-08T00:52:14;99499.31;;;-1.42;52.17
70200;BME280;57587;55.688;37.600;2024-03-08T00:54:41;99484.47;;;-1.43;51.95
70200;BME280;57587;55.688;37.600;2024-03-08T00:57:11;99489.50;;;-1.40;52.10
70200;BME280;57587;55.688;37.600;2024-03-08T00:59:39;99476.91;;;-1.34;52.36
70200;BME280;57587;55.688;37.600;2024-03-08T01:02:06;99479.59;;;-1.23;52.09
70200;BME280;57587;55.688;37.600;2024-03-08T01:04:33;99470.94;;;-1.12;51.81
70200;BME280;57587;55.688;37.600;2024-03-08T01:07:01;99470.47;;;-1.06;51.68
70200;BME280;57587;55.688;37.600;2024-03-08T01:09:28;99454.19;;;-0.99;51.68
70200;BME280;57587;55.688;37.600;2024-03-08T01:11:55;99468.16;;;-0.87;51.23
70200;BME280;57587;55.688;37.600;2024-03-08T01:14:24;99466.19;;;-0.83;51.12
70200;BME280;57587;55.688;37.600;2024-03-08T01:16:52;99453.53;;;-0.78;50.64
70200;BME280;57587;55.688;37.600;2024-03-08T01:19:20;99460.00;;;-0.71;50.94
70200;BME280;57587;55.688;37.600;2024-03-08T01:21:47;99458.44;;;-0.74;50.75
70200;BME280;57587;55.688;37.600;2024-03-08T01:24:14;99455.00;;;-0.74;50.87
70200;BME280;57587;55.688;37.600;2024-03-08T01:26:41;99463.81;;;-0.75;50.82
70200;BME280;57587;55.688;37.600;2024-03-08T01:29:09;99452.81;;;-0.80;50.96
70200;BME280;57587;55.688;37.600;2024-03-08T01:31:36;99455.69;;;-0.83;50.80
70200;BME280;57587;55.688;37.600;2024-03-08T01:34:04;99460.78;;;-0.82;51.22
70200;BME280;57587;55.688;37.600;2024-03-08T01:36:31;99460.94;;;-0.83;51.18
70200;BME280;57587;55.688;37.600;2024-03-08T01:38:58;99457.66;;;-0.87;51.52
70200;BME280;57587;55.688;37.600;2024-03-08T01:41:26;99451.47;;;-0.86;51.12
70200;BME280;57587;55.688;37.600;2024-03-08T01:43:57;99439.91;;;-0.83;51.34
70200;BME280;57587;55.688;37.600;2024-03-08T01:46:24;99439.22;;;-0.74;51.32
70200;BME280;57587;55.688;37.600;2024-03-08T01:48:52;99439.69;;;-0.69;51.19
70200;BME280;57587;55.688;37.600;2024-03-08T01:51:19;99438.31;;;-0.62;50.74
70200;BME280;57587;55.688;37.600;2024-03-08T01:53:47;99441.41;;;-0.57;50.57
70200;BME280;57587;55.688;37.600;2024-03-08T01:56:16;99439.28;;;-0.52;50.82
70200;BME280;57587;55.688;37.600;2024-03-08T01:58:45;99444.03;;;-0.57;50.62
70200;BME280;57587;55.688;37.600;2024-03-08T02:01:14;99447.94;;;-0.62;50.73
70200;BME280;57587;55.688;37.600;2024-03-08T02:03:43;99450.94;;;-0.67;50.86
70200;BME280;57587;55.688;37.600;2024-03-08T02:06:12;99448.88;;;-0.75;50.81
70200;BME280;57587;55.688;37.600;2024-03-08T02:08:42;99450.66;;;-0.86;51.05
70200;BME280;57587;55.688;37.600;2024-03-08T02:11:14;99441.75;;;-0.97;51.35
70200;BME280;57587;55.688;37.600;2024-03-08T02:13:42;99435.50;;;-1.07;51.92
70200;BME280;57587;55.688;37.600;2024-03-08T02:16:09;99423.66;;;-1.12;52.01
70200;BME280;57587;55.688;37.600;2024-03-08T02:18:36;99419.09;;;-1.22;51.93
70200;BME280;57587;55.688;37.600;2024-03-08T02:21:06;99412.03;;;-1.32;52.32
70200;BME280;57587;55.688;37.600;2024-03-08T02:23:36;99424.41;;;-1.34;52.25
70200;BME280;57587;55.688;37.600;2024-03-08T02:26:04;99423.19;;;-1.42;52.70
70200;BME280;57587;55.688;37.600;2024-03-08T02:28:32;99415.03;;;-1.50;52.79
70200;BME280;57587;55.688;37.600;2024-03-08T02:31:00;99412.84;;;-1.56;52.75
70200;BME280;57587;55.688;37.600;2024-03-08T02:33:27;99420.00;;;-1.58;53.21
70200;BME280;57587;55.688;37.600;2024-03-08T02:35:55;99423.06;;;-1.64;53.49
70200;BME280;57587;55.688;37.600;2024-03-08T02:38:23;99428.53;;;-1.67;53.25
70200;BME280;57587;55.688;37.600;2024-03-08T02:40:53;99422.25;;;-1.77;53.34
70200;BME280;57587;55.688;37.600;2024-03-08T02:43:22;99419.00;;;-1.81;53.55
70200;BME280;57587;55.688;37.600;2024-03-08T02:45:50;99427.94;;;-1.83;53.96
70200;BME280;57587;55.688;37.600;2024-03-08T02:48:19;99414.50;;;-1.79;53.93
70200;BME280;57587;55.688;37.600;2024-03-08T02:50:49;99411.97;;;-1.80;53.86
70200;BME280;57587;55.688;37.600;2024-03-08T02:53:18;99413.47;;;-1.76;53.84
70200;BME280;57587;55.688;37.600;2024-03-08T02:55:46;99409.66;;;-1.72;53.69
70200;BME280;57587;55.688;37.600;2024-03-08T02:58:14;99407.34;;;-1.64;53.35
70200;BME280;57587;55.688;37.600;2024-03-08T03:00:42;99408.56;;;-1.57;53.54
70200;BME280;57587;55.688;37.600;2024-03-08T03:03:11;99411.66;;;-1.52;53.38
70200;BME280;57587;55.688;37.600;2024-03-08T03:05:39;99400.94;;;-1.49;53.12
70200;BME280;57587;55.688;37.600;2024-03-08T03:08:14;99401.16;;;-1.52;53.23
70200;BME280;57587;55.688;37.600;2024-03-08T03:10:44;99402.97;;;-1.52;52.95
70200;BME280;57587;55.688;37.600;2024-03-08T03:13:11;99387.56;;;-1.57;52.99
70200;BME280;57587;55.688;37.600;2024-03-08T03:15:39;99386.13;;;-1.61;52.77
70200;BME280;57587;55.688;37.600;2024-03-08T03:18:08;99382.97;;;-1.66;53.39
70200;BME280;57587;55.688;37.600;2024-03-08T03:20:36;99379.84;;;-1.71;53.61
70200;BME280;57587;55.688;37.600;2024-03-08T03:23:09;99370.63;;;-1.77;53.72
70200;BME280;57587;55.688;37.600;2024-03-08T03:25:36;99372.84;;;-1.83;53.73
70200;BME280;57587;55.688;37.600;2024-03-08T03:28:06;99372.38;;;-1.89;53.70
70200;BME280;57587;55.688;37.600;2024-03-08T03:30:35;99366.25;;;-1.89;53.98
70200;BME280;57587;55.688;37.600;2024-03-08T03:33:05;99381.81;;;-1.99;53.97
70200;BME280;57587;55.688;37.600;2024-03-08T03:35:35;99370.72;;;-2.02;54.10
70200;BME280;57587;55.688;37.600;2024-03-08T03:38:04;99371.75;;;-2.05;54.47
70200;BME280;57587;55.688;37.600;2024-03-08T03:40:38;99369.34;;;-2.08;54.31
70200;BME280;57587;55.688;37.600;2024-03-08T03:43:06;99365.69;;;-2.05;54.24
70200;BME280;57587;55.688;37.600;2024-03-08T03:45:35;99350.78;;;-2.05;54.42
70200;BME280;57587;55.688;37.600;2024-03-08T03:48:05;99346.59;;;-2.08;54.43
70200;BME280;57587;55.688;37.600;2024-03-08T03:50:38;99352.56;;;-2.05;54.49
70200;BME280;57587;55.688;37.600;2024-03-08T03:53:06;99356.44;;;-1.98;54.59
70200;BME280;57587;55.688;37.600;2024-03-08T03:55:37;99355.59;;;-1.99;54.78
70200;BME280;57587;55.688;37.600;2024-03-08T03:58:08;99366.25;;;-1.89;54.75
70200;BME280;57587;55.688;37.600;2024-03-08T04:00:38;99364.28;;;-1.86;54.28
70200;BME280;57587;55.688;37.600;2024-03-08T04:03:05;99360.56;;;-1.83;54.75
70200;BME280;57587;55.688;37.600;2024-03-08T04:05:33;99363.31;;;-1.84;54.71
70200;BME280;57587;55.688;37.600;2024-03-08T04:08:01;99361.09;;;-1.78;54.24
70200;BME280;57587;55.688;37.600;2024-03-08T04:10:30;99361.47;;;-1.71;54.30
70200;BME280;57587;55.688;37.600;2024-03-08T04:12:58;99359.47;;;-1.68;54.76
70200;BME280;57587;55.688;37.600;2024-03-08T04:15:25;99358.19;;;-1.62;54.47
70200;BME280;57587;55.688;37.600;2024-03-08T04:17:52;99347.69;;;-1.62;54.28
70200;BME280;57587;55.688;37.600;2024-03-08T04:20:20;99349.16;;;-1.58;54.22
70200;BME280;57587;55.688;37.600;2024-03-08T04:22:48;99345.59;;;-1.57;54.24
70200;BME280;57587;55.688;37.600;2024-03-08T04:25:17;99344.41;;;-1.53;54.21
70200;BME280;57587;55.688;37.600;2024-03-08T04:27:45;99340.81;;;-1.52;53.93
70200;BME280;57587;55.688;37.600;2024-03-08T04:30:12;99343.44;;;-1.52;54.37
70200;BME280;57587;55.688;37.600;2024-03-08T04:32:40;99337.97;;;-1.49;54.24
70200;BME280;57587;55.688;37.600;2024-03-08T04:35:08;99328.94;;;-1.45;53.97
70200;BME280;57587;55.688;37.600;2024-03-08T04:37:35;99335.13;;;-1.46;54.24
70200;BME280;57587;55.688;37.600;2024-03-08T04:40:03;99334.63;;;-1.51;54.03
70200;BME280;57587;55.688;37.600;2024-03-08T04:42:31;99335.47;;;-1.50;54.16
70200;BME280;57587;55.688;37.600;2024-03-08T04:45:00;99340.28;;;-1.44;54.57
70200;BME280;57587;55.688;37.600;2024-03-08T04:47:30;99341.84;;;-1.42;54.33
70200;BME280;57587;55.688;37.600;2024-03-08T04:49:58;99333.34;;;-1.45;54.53
70200;BME280;57587;55.688;37.600;2024-03-08T04:52:25;99333.50;;;-1.35;54.32
70200;BME280;57587;55.688;37.600;2024-03-08T04:54:52;99331.59;;;-1.33;54.38
70200;BME280;57587;55.688;37.600;2024-03-08T04:57:19;99326.34;;;-1.33;54.33
70200;BME280;57587;55.688;37.600;2024-03-08T04:59:47;99326.34;;;-1.33;54.38
70200;BME280;57587;55.688;37.600;2024-03-08T05:02:14;99320.47;;;-1.37;54.50
70200;BME280;57587;55.688;37.600;2024-03-08T05:04:41;99324.91;;;-1.37;55.03
70200;BME280;57587;55.688;37.600;2024-03-08T05:07:09;99330.66;;;-1.32;55.09
70200;BME280;57587;55.688;37.600;2024-03-08T05:09:36;99327.56;;;-1.26;55.28
70200;BME280;57587;55.688;37.600;2024-03-08T05:12:05;99318.75;;;-1.25;54.91
70200;BME280;57587;55.688;37.600;2024-03-08T05:14:32;99319.56;;;-1.25;55.29
70200;BME280;57587;55.688;37.600;2024-03-08T05:17:01;99314.81;;;-1.20;55.44
70200;BME280;57587;55.688;37.600;2024-03-08T05:19:28;99316.63;;;-1.20;56.13
70200;BME280;57587;55.688;37.600;2024-03-08T05:22:01;99310.78;;;-1.12;55.64
70200;BME280;57587;55.688;37.600;2024-03-08T05:24:28;99314.00;;;-1.09;55.71
70200;BME280;57587;55.688;37.600;2024-03-08T05:26:57;99310.22;;;-1.05;55.88
70200;BME280;57587;55.688;37.600;2024-03-08T05:29:26;99304.34;;;-1.08;55.89
70200;BME280;57587;55.688;37.600;2024-03-08T05:31:54;99311.38;;;-1.09;56.08
70200;BME280;57587;55.688;37.600;2024-03-08T05:34:21;99297.09;;;-1.05;55.88
70200;BME280;57587;55.688;37.600;2024-03-08T05:36:49;99298.50;;;-1.01;55.89
70200;BME280;57587;55.688;37.600;2024-03-08T05:39:18;99301.13;;;-1.01;55.97
70200;BME280;57587;55.688;37.600;2024-03-08T05:41:47;99305.56;;;-1.01;56.04
70200;BME280;57587;55.688;37.600;2024-03-08T05:44:15;99306.41;;;-0.89;55.85
70200;BME280;57587;55.688;37.600;2024-03-08T05:46:44;99308.56;;;-0.83;55.70
70200;BME280;57587;55.688;37.600;2024-03-08T05:49:14;99310.97;;;-0.80;55.58
70200;BME280;57587;55.688;37.600;2024-03-08T05:51:41;99306.41;;;-0.78;55.55
70200;BME280;57587;55.688;37.600;2024-03-08T05:54:12;99311.78;;;-0.80;54.99
70200;BME280;57587;55.688;37.600;2024-03-08T05:56:43;99308.22;;;-0.67;55.23
70200;BME280;57587;55.688;37.600;2024-03-08T05:59:12;99312.28;;;-0.63;54.99
70200;BME280;57587;55.688;37.600;2024-03-08T06:01:40;99314.06;;;-0.64;54.78
70200;BME280;57587;55.688;37.600;2024-03-08T06:04:09;99306.66;;;-0.70;54.90
70200;BME280;57587;55.688;37.600;2024-03-08T06:06:41;99310.72;;;-0.66;54.71
70200;BME280;57587;55.688;37.600;2024-03-08T06:09:08;99310.47;;;-0.63;54.81
70200;BME280;57587;55.688;37.600;2024-03-08T06:11:41;99306.78;;;-0.60;54.63
70200;BME280;57587;55.688;37.600;2024-03-08T06:14:09;99305.69;;;-0.47;54.24
70200;BME280;57587;55.688;37.600;2024-03-08T06:16:36;99303.69;;;-0.43;54.47
70200;BME280;57587;55.688;37.600;2024-03-08T06:19:05;99298.63;;;-0.35;54.19
70200;BME280;57587;55.688;37.600;2024-03-08T06:21:32;99298.03;;;-0.27;53.98
70200;BME280;57587;55.688;37.600;2024-03-08T06:23:59;99298.03;;;-0.27;53.78
70200;BME280;57587;55.688;37.600;2024-03-08T06:26:30;99303.50;;;-0.19;53.76
70200;BME280;57587;55.688;37.600;2024-03-08T06:28:59;99296.09;;;-0.14;53.53
70200;BME280;57587;55.688;37.600;2024-03-08T06:31:27;99287.72;;;-0.08;53.42
70200;BME280;57587;55.688;37.600;2024-03-08T06:33:54;99293.81;;;0.04;53.11
70200;BME280;57587;55.688;37.600;2024-03-08T06:36:24;99298.44;;;0.12;52.62
70200;BME280;57587;55.688;37.600;2024-03-08T06:38:52;99297.25;;;0.16;52.91
70200;BME280;57587;55.688;37.600;2024-03-08T06:41:19;99293.16;;;0.12;53.21
70200;BME280;57587;55.688;37.600;2024-03-08T06:43:47;99302.94;;;0.21;52.67
70200;BME280;57587;55.688;37.600;2024-03-08T06:46:24;99293.16;;;0.23;52.36
70200;BME280;57587;55.688;37.600;2024-03-08T06:48:51;99294.81;;;0.24;52.63
70200;BME280;57587;55.688;37.600;2024-03-08T06:51:19;99295.28;;;0.29;51.96
70200;BME280;57587;55.688;37.600;2024-03-08T06:53:46;99297.66;;;0.32;51.90
70200;BME280;57587;55.688;37.600;2024-03-08T06:56:13;99298.00;;;0.39;51.98
70200;BME280;57587;55.688;37.600;2024-03-08T06:58:41;99286.88;;;0.35;51.87
70200;BME280;57587;55.688;37.600;2024-03-08T07:01:09;99300.94;;;0.45;51.82
70200;BME280;57587;55.688;37.600;2024-03-08T07:03:41;99293.38;;;0.52;51.55
70200;BME280;57587;55.688;37.600;2024-03-08T07:06:11;99296.72;;;0.54;51.95
70200;BME280;57587;55.688;37.600;2024-03-08T07:08:39;99298.28;;;0.57;51.44
70200;BME280;57587;55.688;37.600;2024-03-08T07:11:06;99295.97;;;0.63;51.57
70200;BME280;57587;55.688;37.600;2024-03-08T07:13:34;99298.44;;;0.65;51.66
70200;BME280;57587;55.688;37.600;2024-03-08T07:16:01;99298.44;;;0.65;51.42
70200;BME280;57587;55.688;37.600;2024-03-08T07:18:28;99293.78;;;0.68;51.63
70200;BME280;57587;55.688;37.600;2024-03-08T07:20:57;99300.22;;;0.76;51.27
70200;BME280;57587;55.688;37.600;2024-03-08T07:23:25;99294.22;;;0.74;51.37
70200;BME280;57587;55.688;37.600;2024-03-08T07:26:16;99298.28;;;0.78;51.47
70200;BME280;57587;55.688;37.600;2024-03-08T07:28:45;99297.38;;;0.88;50.89
70200;BME280;57587;55.688;37.600;2024-03-08T07:31:12;99304.31;;;0.89;51.45
70200;BME280;57587;55.688;37.600;2024-03-08T07:33:58;99303.22;;;0.92;51.15
70200;BME280;57587;55.688;37.600;2024-03-08T07:36:25;99304.78;;;0.95;51.14
70200;BME280;57587;55.688;37.600;2024-03-08T07:38:52;99306.47;;;1.05;51.00
70200;BME280;57587;55.688;37.600;2024-03-08T07:41:19;99299.50;;;1.15;50.88
70200;BME280;57587;55.688;37.600;2024-03-08T07:43:47;99304.63;;;1.17;50.19
70200;BME280;57587;55.688;37.600;2024-03-08T07:46:15;99305.59;;;1.16;51.11
70200;BME280;57587;55.688;37.600;2024-03-08T07:48:45;99294.22;;;1.15;50.71
70200;BME280;57587;55.688;37.600;2024-03-08T07:51:16;99296.44;;;1.20;50.30
70200;BME280;57587;55.688;37.600;2024-03-08T07:53:47;99296.50;;;1.30;50.37
70200;BME280;57587;55.688;37.600;2024-03-08T07:56:14;99289.88;;;1.35;50.32
70200;BME280;57587;55.688;37.600;2024-03-08T07:58:44;99284.06;;;1.42;50.06
70200;BME280;57587;55.688;37.600;2024-03-08T08:01:20;99271.50;;;1.55;49.71
70200;BME280;57587;55.688;37.600;2024-03-08T08:03:49;99273.16;;;1.56;49.46
70200;BME280;57587;55.688;37.600;2024-03-08T08:06:16;99268.47;;;1.59;49.65
70200;BME280;57587;55.688;37.600;2024-03-08T08:08:43;99267.63;;;1.59;49.42
70200;BME280;57587;55.688;37.600;2024-03-08T08:11:11;99268.75;;;1.66;49.68
70200;BME280;57587;55.688;37.600;2024-03-08T08:13:38;99272.97;;;1.88;48.92
70200;BME280;57587;55.688;37.600;2024-03-08T08:16:06;99273.13;;;1.87;49.01
70200;BME280;57587;55.688;37.600;2024-03-08T08:18:33;99276.75;;;1.95;49.10
70200;BME280;57587;55.688;37.600;2024-03-08T08:21:04;99283.84;;;2.04;48.98
70200;BME280;57587;55.688;37.600;2024-03-08T08:23:33;99289.69;;;2.08;48.92
70200;BME280;57587;55.688;37.600;2024-03-08T08:26:00;99278.00;;;2.11;48.52
70200;BME280;57587;55.688;37.600;2024-03-08T08:28:28;99286.63;;;2.13;48.84
70200;BME280;57587;55.688;37.600;2024-03-08T08:31:01;99280.25;;;2.25;48.44
70200;BME280;57587;55.688;37.600;2024-03-08T08:33:32;99276.38;;;2.39;48.41
70200;BME280;57587;55.688;37.600;2024-03-08T08:35:59;99271.09;;;2.39;48.47
70200;BME280;57587;55.688;37.600;2024-03-08T08:38:26;99270.25;;;2.48;48.25
70200;BME280;57587;55.688;37.600;2024-03-08T08:40:54;99262.19;;;2.59;48.13
70200;BME280;57587;55.688;37.600;2024-03-08T08:43:21;99270.09;;;2.69;47.57
70200;BME280;57587;55.688;37.600;2024-03-08T08:45:51;99275.63;;;2.75;48.07
70200;BME280;57587;55.688;37.600;2024-03-08T08:48:21;99278.00;;;2.78;47.84
70200;BME280;57587;55.688;37.600;2024-03-08T08:50:48;99271.31;;;2.84;47.65
70200;BME280;57587;55.688;37.600;2024-03-08T08:53:17;99269.63;;;2.93;47.88
70200;BME280;57587;55.688;37.600;2024-03-08T08:55:45;99261.44;;;2.96;47.91
70200;BME280;57587;55.688;37.600;2024-03-08T08:58:15;99260.16;;;3.00;47.81
70200;BME280;57587;55.688;37.600;2024-03-08T09:00:42;99268.22;;;3.08;47.58
70200;BME280;57587;55.688;37.600;2024-03-08T09:03:10;99269.59;;;3.12;47.57
70200;BME280;57587;55.688;37.600;2024-03-08T09:05:39;99265.72;;;3.07;47.41
70200;BME280;57587;55.688;37.600;2024-03-08T09:08:07;99268.22;;;3.08;47.58
70200;BME280;57587;55.688;37.600;2024-03-08T09:10:35;99264.88;;;3.06;47.59
70200;BME280;57587;55.688;37.600;2024-03-08T09:13:03;99267.66;;;3.05;47.39
70200;BME280;57587;55.688;37.600;2024-03-08T09:15:31;99261.94;;;3.09;48.06
70200;BME280;57587;55.688;37.600;2024-03-08T09:17:58;99260.38;;;3.26;47.83
70200;BME280;57587;55.688;37.600;2024-03-08T09:20:26;99255.34;;;3.33;47.16
70200;BME280;57587;55.688;37.600;2024-03-08T09:22:53;99251.75;;;3.24;47.53
70200;BME280;57587;55.688;37.600;2024-03-08T09:25:21;99251.63;;;3.26;47.94
70200;BME280;57587;55.688;37.600;2024-03-08T09:27:49;99259.78;;;3.32;47.65
70200;BME280;57587;55.688;37.600;2024-03-08T09:30:16;99252.41;;;3.36;47.51
70200;BME280;57587;55.688;37.600;2024-03-08T09:32:44;99253.47;;;3.43;47.37
70200;BME280;57587;55.688;37.600;2024-03-08T09:35:11;99250.75;;;3.35;47.51
70200;BME280;57587;55.688;37.600;2024-03-08T09:37:38;99252.97;;;3.30;47.66
70200;BME280;57587;55.688;37.600;2024-03-08T09:40:06;99245.75;;;3.32;47.78
70200;BME280;57587;55.688;37.600;2024-03-08T09:42:37;99253.09;;;3.38;47.83
70200;BME280;57587;55.688;37.600;2024-03-08T09:45:08;99253.69;;;3.32;48.06
70200;BME280;57587;55.688;37.600;2024-03-08T09:47:42;99242.25;;;3.31;48.08
70200;BME280;57587;55.688;37.600;2024-03-08T09:50:10;99244.19;;;3.39;48.20
70200;BME280;57587;55.688;37.600;2024-03-08T09:52:40;99241.66;;;3.47;48.04
70200;BME280;57587;55.688;37.600;2024-03-08T09:55:07;99248.00;;;3.54;48.15
70200;BME280;57587;55.688;37.600;2024-03-08T09:57:39;99246.13;;;3.64;47.77
70200;BME280;57587;55.688;37.600;2024-03-08T10:00:07;99250.13;;;3.78;47.59
70200;BME280;57587;55.688;37.600;2024-03-08T10:02:51;99247.91;;;3.74;47.17
70200;BME280;57587;55.688;37.600;2024-03-08T10:05:20;99239.97;;;3.74;47.74
70200;BME280;57587;55.688;37.600;2024-03-08T10:07:48;99245.66;;;3.79;47.49
70200;BME280;57587;55.688;37.600;2024-03-08T10:10:15;99245.06;;;3.85;47.60
70200;BME280;57587;55.688;37.600;2024-03-08T10:12:46;99246.00;;;3.84;47.64
70200;BME280;57587;55.688;37.600;2024-03-08T10:15:19;99245.34;;;3.82;47.88
70200;BME280;57587;55.688;37.600;2024-03-08T10:17:47;99252.59;;;3.80;47.73
70200;BME280;57587;55.688;37.600;2024-03-08T10:20:18;99241.41;;;3.86;47.36
70200;BME280;57587;55.688;37.600;2024-03-08T10:22:46;99242.00;;;3.80;47.59
70200;BME280;57587;55.688;37.600;2024-03-08T10:25:32;99239.66;;;3.77;47.54
70200;BME280;57587;55.688;37.600;2024-03-08T10:28:02;99239.38;;;3.80;48.17
70200;BME280;57587;55.688;37.600;2024-03-08T10:30:33;99246.19;;;3.82;48.26
70200;BME280;57587;55.688;37.600;2024-03-08T10:33:00;99231.81;;;3.85;47.97
70200;BME280;57587;55.688;37.600;2024-03-08T10:35:28;99235.34;;;3.76;48.10
70200;BME280;57587;55.688;37.600;2024-03-08T10:38:04;99230.06;;;3.76;48.11
70200;BME280;57587;55.688;37.600;2024-03-08T11:05:45;99214.31;;;3.74;49.19
70200;BME280;57587;55.688;37.600;2024-03-08T11:08:38;99231.63;;;3.68;48.85
70200;BME280;57587;55.688;37.600;2024-03-08T11:12:42;99222.31;;;3.64;49.57
70200;BME280;57587;55.688;37.600;2024-03-08T11:28:25;99223.72;;;3.86;49.14
70200;BME280;57587;55.688;37.600;2024-03-08T11:46:15;99232.31;;;4.34;48.21
70200;BME280;57587;55.688;37.600;2024-03-08T11:48:43;99214.81;;;4.41;48.38
70200;BME280;57587;55.688;37.600;2024-03-08T11:51:24;99224.69;;;4.57;47.91
70200;BME280;57587;55.688;37.600;2024-03-08T11:53:52;99220.13;;;4.67;47.65
70200;BME280;57587;55.688;37.600;2024-03-08T11:56:19;99220.34;;;4.74;47.37
70200;BME280;57587;55.688;37.600;2024-03-08T11:58:55;99196.81;;;4.71;47.79
70200;BME280;57587;55.688;37.600;2024-03-08T12:01:25;99217.75;;;4.82;46.62
70200;BME280;57587;55.688;37.600;2024-03-08T12:03:53;99218.69;;;4.73;47.13
70200;BME280;57587;55.688;37.600;2024-03-08T12:06:21;99215.69;;;4.68;47.69
70200;BME280;57587;55.688;37.600;2024-03-08T12:08:48;99216.34;;;4.70;47.15
70200;BME280;57587;55.688;37.600;2024-03-08T12:11:18;99212.03;;;4.69;47.70
70200;BME280;57587;55.688;37.600;2024-03-08T12:13:55;99219.31;;;4.67;47.50
70200;BME280;57587;55.688;37.600;2024-03-08T12:16:24;99224.28;;;4.70;46.96
70200;BME280;57587;55.688;37.600;2024-03-08T12:18:52;99222.63;;;4.69;47.16
70200;BME280;57587;55.688;37.600;2024-03-08T12:21:20;99224.81;;;4.73;47.13
70200;BME280;57587;55.688;37.600;2024-03-08T12:24:03;99212.44;;;4.82;47.46
70200;BME280;57587;55.688;37.600;2024-03-08T12:26:30;99227.41;;;4.91;47.44
70200;BME280;57587;55.688;37.600;2024-03-08T12:29:21;99225.16;;;4.96;46.83
70200;BME280;57587;55.688;37.600;2024-03-08T12:31:58;99233.25;;;4.95;47.03
70200;BME280;57587;55.688;37.600;2024-03-08T12:34:31;99226.44;;;4.92;47.08
70200;BME280;57587;55.688;37.600;2024-03-08T12:36:59;99231.91;;;4.91;46.67
70200;BME280;57587;55.688;37.600;2024-03-08T12:39:26;99226.75;;;4.89;46.58
70200;BME280;57587;55.688;37.600;2024-03-08T12:41:56;99232.66;;;4.83;47.02
70200;BME280;57587;55.688;37.600;2024-03-08T12:44:27;99222.22;;;4.81;46.90
70200;BME280;57587;55.688;37.600;2024-03-08T12:46:55;99230.78;;;4.75;46.74
70200;BME280;57587;55.688;37.600;2024-03-08T12:49:26;99223.84;;;4.74;46.96
70200;BME280;57587;55.688;37.600;2024-03-08T12:51:54;99224.06;;;4.81;46.89
70200;BME280;57587;55.688;37.600;2024-03-08T12:54:21;99224.81;;;4.73;46.37
70200;BME280;57587;55.688;37.600;2024-03-08T12:56:51;99223.63;;;4.68;46.63
70200;BME280;57587;55.688;37.600;2024-03-08T12:59:22;99218.88;;;4.53;46.47
70200;BME280;57587;55.688;37.600;2024-03-08T13:01:51;99222.13;;;4.65;46.50
70200;BME280;57587;55.688;37.600;2024-03-08T13:04:19;99231.28;;;4.71;46.60
70200;BME280;57587;55.688;37.600;2024-03-08T13:06:49;99219.94;;;4.87;46.28
70200;BME280;57587;55.688;37.600;2024-03-08T13:09:21;99236.28;;;5.00;45.87
70200;BME280;57587;55.688;37.600;2024-03-08T13:11:49;99241.78;;;5.06;45.54
70200;BME280;57587;55.688;37.600;2024-03-08T13:14:16;99245.34;;;4.97;45.57
70200;BME280;57587;55.688;37.600;2024-03-08T13:16:43;99245.59;;;4.86;45.00
70200;BME280;57587;55.688;37.600;2024-03-08T13:19:15;99250.50;;;4.73;45.88
70200;BME280;57587;55.688;37.600;2024-03-08T13:21:43;99245.81;;;4.67;45.86
70200;BME280;57587;55.688;37.600;2024-03-08T13:24:14;99245.34;;;4.71;46.15
70200;BME280;57587;55.688;37.600;2024-03-08T13:26:43;99241.94;;;4.61;46.18
70200;BME280;57587;55.688;37.600;2024-03-08T13:29:11;99249.53;;;4.56;46.02
70200;BME280;57587;55.688;37.600;2024-03-08T13:31:38;99250.38;;;4.56;46.18
70200;BME280;57587;55.688;37.600;2024-03-08T13:34:06;99247.34;;;4.51;46.59
70200;BME280;57587;55.688;37.600;2024-03-08T13:36:33;99244.03;;;4.49;47.14
70200;BME280;57587;55.688;37.600;2024-03-08T13:39:06;99240.59;;;4.39;46.78
70200;BME280;57587;55.688;37.600;2024-03-08T13:41:42;99242.91;;;4.34;46.80
70200;BME280;57587;55.688;37.600;2024-03-08T13:44:09;99232.75;;;4.29;46.25
70200;BME280;57587;55.688;37.600;2024-03-08T13:46:36;99243.81;;;4.25;46.83
70200;BME280;57587;55.688;37.600;2024-03-08T13:49:05;99239.78;;;4.21;46.79
70200;BME280;57587;55.688;37.600;2024-03-08T13:51:35;99229.56;;;4.08;47.22
70200;BME280;57587;55.688;37.600;2024-03-08T13:54:02;99222.16;;;3.93;47.42
70200;BME280;57587;55.688;37.600;2024-03-08T13:56:33;99212.22;;;3.78;47.79
70200;BME280;57587;55.688;37.600;2024-03-08T13:59:01;99212.72;;;3.63;48.56